This is the latest recevied weather packets stored in our database for station/object DL3XAK-13. If no packets are shown the sender has not sent any weather packets the latest 10 day(s).
| Time | Temp. | Humidity | Pressure | Rain* | Wind** | Luminosity | Snow |
|---|---|---|---|---|---|---|---|
| 1777352807 | 6.11° C | 61% | 1028 hPa | - | - | - | - |
| 1777351007 | 5° C | 61% | 1027 hPa | - | - | - | - |
| 1777349207 | 5.56° C | 61% | 1027 hPa | - | - | - | - |
| 1777347407 | 5.56° C | 61% | 1027 hPa | - | - | - | - |
| 1777345607 | 5.56° C | 61% | 1027 hPa | - | - | - | - |
| 1777343807 | 5.56° C | 60% | 1027 hPa | - | - | - | - |
| 1777342007 | 6.67° C | 60% | 1027 hPa | - | - | - | - |
| 1777340207 | 6.67° C | 59% | 1027 hPa | - | - | - | - |
| 1777338407 | 7.22° C | 59% | 1026 hPa | - | - | - | - |
| 1777334807 | 7.22° C | 58% | 1026 hPa | - | - | - | - |
| 1777313207 | 12.22° C | 53% | 1024 hPa | - | - | - | - |
| 1777311407 | 12.78° C | 55% | 1024 hPa | - | - | - | - |
| 1777309607 | 12.78° C | 54% | 1025 hPa | - | - | - | - |
| 1777307807 | 13.33° C | 54% | 1024 hPa | - | - | - | - |
| 1777306007 | 12.78° C | 54% | 1025 hPa | - | - | - | - |
| 1777304207 | 13.33° C | 53% | 1025 hPa | - | - | - | - |
| 1777300607 | 12.78° C | 54% | 1025 hPa | - | - | - | - |
| 1777298807 | 12.78° C | 54% | 1025 hPa | - | - | - | - |
| 1777297007 | 12.22° C | 53% | 1026 hPa | - | - | - | - |
| 1777295207 | 12.22° C | 52% | 1026 hPa | - | - | - | - |
| 1777293407 | 11.67° C | 55% | 1026 hPa | - | - | - | - |
| 1777291607 | 11.67° C | 55% | 1026 hPa | - | - | - | - |
| 1777289807 | 11.11° C | 57% | 1026 hPa | - | - | - | - |
| 1777288007 | 10.56° C | 57% | 1027 hPa | - | - | - | - |
| 1777286207 | 10.56° C | 57% | 1026 hPa | - | - | - | - |
* Rain since midnight (hover to see other rain measurements)
** Current wind speed in m/s (hover to see current wind gust speed)